Time;durP1;ratioP1;P1;durP2;ratioP2;P2;SDS_P1;SDS_P2;PMS_P1;PMS_P2;Temp;Humidity;BMP_temperature;BMP_pressure;BME280_temperature;BME280_humidity;BME280_pressure;Samples;Min_cycle;Max_cycle;Signal;HPM_P1;HPM_P2
2021/01/20 00:00:37;;;;;;;3.30;1.90;;;7.20;56.90;;;;;;6184595;23;20417;-84
2021/01/20 00:03:07;;;;;;;2.37;2.17;;;7.20;56.70;;;;;;6184988;23;20418;-85
2021/01/20 00:05:34;;;;;;;2.10;1.90;;;7.30;56.60;;;;;;6185402;23;20406;-84
2021/01/20 00:11:50;;;;;;;1.97;1.80;;;7.40;56.30;;;;;;6057523;23;20421;-85
2021/01/20 00:14:28;;;;;;;1.87;1.60;;;7.30;56.20;;;;;;6183804;23;20755;-84
2021/01/20 00:17:08;;;;;;;2.37;1.80;;;7.40;56.30;;;;;;6184793;23;20902;-84
2021/01/20 00:19:35;;;;;;;1.70;1.50;;;7.40;56.40;;;;;;6185038;23;20417;-83
2021/01/20 00:22:02;;;;;;;1.83;1.73;;;7.40;56.40;;;;;;6184756;23;20418;-84
2021/01/20 00:24:29;;;;;;;3.43;2.27;;;7.40;56.30;;;;;;6182965;23;20412;-83
2021/01/20 00:26:56;;;;;;;2.13;1.70;;;7.40;56.40;;;;;;6184855;23;20456;-83
2021/01/20 00:29:23;;;;;;;1.97;1.77;;;7.40;56.70;;;;;;6184395;23;20421;-84
2021/01/20 00:31:56;;;;;;;1.80;1.70;;;7.40;56.70;;;;;;6184779;23;20427;-84
2021/01/20 00:48:44;;;;;;;;;;;;;;;;;;;;;
2021/01/20 00:51:13;;;;;;;2.57;2.40;;;7.30;56.90;;;;;;6091324;23;20414;-83
2021/01/20 00:53:40;;;;;;;3.23;1.77;;;7.30;56.90;;;;;;6093521;23;20423;-83
2021/01/20 00:56:07;;;;;;;1.83;1.60;;;7.30;57.10;;;;;;6173315;23;20506;-83
2021/01/20 00:58:33;;;;;;;6.97;2.20;;;7.30;57.40;;;;;;6184395;23;20494;-84
2021/01/20 01:01:00;;;;;;;2.40;1.80;;;7.30;57.40;;;;;;6184526;23;20440;-84
2021/01/20 01:03:28;;;;;;;1.53;1.43;;;7.30;57.40;;;;;;6184661;23;20419;-84
2021/01/20 01:06:45;;;;;;;;;;;;;;;;;;;;;
2021/01/20 01:09:42;;;;;;;;;;;;;;;;;;;;;
2021/01/20 01:12:47;;;;;;;1.93;1.40;;;7.30;57.40;;;;;;6185366;23;20448;-85
2021/01/20 01:21:20;;;;;;;1.33;1.27;;;7.30;57.70;;;;;;6182042;23;20413;-81
2021/01/20 01:23:47;;;;;;;2.50;2.20;;;7.30;57.80;;;;;;6186998;23;20413;-81
2021/01/20 01:26:13;;;;;;;2.90;1.30;;;7.20;57.90;;;;;;6186603;23;20452;-84
2021/01/20 01:28:40;;;;;;;1.70;1.60;;;7.20;58.00;;;;;;6186396;23;20422;-82
2021/01/20 01:31:07;;;;;;;2.20;2.03;;;7.30;58.20;;;;;;6186180;23;20416;-82
2021/01/20 01:33:34;;;;;;;2.30;2.10;;;7.20;58.10;;;;;;6186405;23;20415;-82
2021/01/20 01:36:01;;;;;;;2.23;1.60;;;7.30;58.20;;;;;;6186246;23;20430;-82
2021/01/20 01:38:27;;;;;;;1.80;1.70;;;7.20;58.20;;;;;;6187122;23;20414;-82
2021/01/20 01:40:54;;;;;;;3.80;1.30;;;7.20;58.30;;;;;;6186384;23;20418;-82
2021/01/20 01:43:23;;;;;;;2.20;2.00;;;7.20;58.40;;;;;;6186219;23;20410;-82
2021/01/20 01:45:50;;;;;;;1.80;1.70;;;7.20;58.50;;;;;;6184776;23;20410;-82
2021/01/20 01:48:17;;;;;;;2.33;2.10;;;7.20;58.60;;;;;;6186224;23;20415;-82
2021/01/20 01:50:46;;;;;;;1.57;1.43;;;7.20;58.50;;;;;;6186401;23;20424;-82
2021/01/20 01:53:13;;;;;;;1.33;1.23;;;7.30;58.60;;;;;;6186253;23;20420;-81
2021/01/20 01:55:40;;;;;;;2.30;1.90;;;7.30;58.70;;;;;;6186216;23;20417;-81
2021/01/20 01:58:07;;;;;;;1.60;1.50;;;7.30;58.70;;;;;;6185592;23;20412;-82
2021/01/20 02:00:34;;;;;;;6.37;1.67;;;7.30;58.60;;;;;;6186553;23;20412;-82
2021/01/20 02:03:06;;;;;;;2.60;1.70;;;7.30;58.50;;;;;;6186308;23;20416;-85
2021/01/20 02:05:33;;;;;;;2.40;1.80;;;7.30;58.50;;;;;;6186503;23;20400;-83
2021/01/20 02:08:05;;;;;;;2.40;1.73;;;7.30;58.50;;;;;;6186286;23;20450;-83
2021/01/20 02:10:32;;;;;;;3.27;1.77;;;7.30;58.40;;;;;;6185940;23;20423;-82
2021/01/20 02:13:14;;;;;;;2.33;2.20;;;7.40;58.50;;;;;;6183940;23;20445;-82
2021/01/20 02:15:53;;;;;;;2.07;1.90;;;7.40;58.40;;;;;;6186060;23;20442;-86
2021/01/20 02:22:16;;;;;;;2.10;1.90;;;7.30;58.50;;;;;;6065147;23;20441;-83
2021/01/20 02:24:58;;;;;;;2.53;2.43;;;7.30;58.70;;;;;;6185406;23;20427;-83
2021/01/20 02:27:33;;;;;;;1.90;1.70;;;7.30;58.70;;;;;;6185428;23;20445;-83
2021/01/20 02:30:09;;;;;;;2.33;1.90;;;7.20;58.70;;;;;;6185770;23;20456;-83
2021/01/20 02:32:37;;;;;;;2.40;1.80;;;7.20;59.00;;;;;;6185683;23;20419;-83
2021/01/20 02:35:14;;;;;;;2.00;1.60;;;7.20;58.90;;;;;;6185813;23;20416;-85
2021/01/20 02:37:59;;;;;;;2.50;2.30;;;7.20;59.00;;;;;;6182968;23;20488;-85
2021/01/20 02:43:43;;;;;;;2.00;1.80;;;7.10;59.20;;;;;;6180980;23;20433;-85
2021/01/20 02:46:45;;;;;;;1.53;1.30;;;7.10;59.40;;;;;;6185184;23;20475;-84
2021/01/20 02:49:22;;;;;;;2.00;1.80;;;7.10;59.50;;;;;;6185198;23;20434;-85
2021/01/20 02:52:05;;;;;;;1.70;1.60;;;7.10;59.60;;;;;;6184149;23;20414;-85
2021/01/20 02:55:08;;;;;;;1.67;1.50;;;7.20;59.60;;;;;;6185206;23;20437;-85
2021/01/20 02:57:57;;;;;;;;;;;;;;;;;;;;;
2021/01/20 03:00:42;;;;;;;1.43;1.33;;;7.20;59.60;;;;;;6184732;23;20425;-85
2021/01/20 03:03:11;;;;;;;1.53;1.43;;;7.20;59.50;;;;;;6185582;23;20464;-82
2021/01/20 03:05:40;;;;;;;3.50;1.67;;;7.30;59.50;;;;;;6183292;23;20912;-83
2021/01/20 03:08:07;;;;;;;1.60;1.33;;;7.30;59.40;;;;;;6185057;23;20451;-82
2021/01/20 03:10:34;;;;;;;1.93;1.73;;;7.30;59.40;;;;;;6185560;23;20394;-82
2021/01/20 03:13:01;;;;;;;2.00;1.73;;;7.40;59.30;;;;;;6185598;23;20435;-84
2021/01/20 03:18:45;;;;;;;1.60;1.50;;;7.40;59.20;;;;;;6174021;23;20408;-84
2021/01/20 03:21:12;;;;;;;2.80;2.13;;;7.40;59.30;;;;;;6185456;23;20424;-84
2021/01/20 03:23:41;;;;;;;2.20;1.97;;;7.40;59.40;;;;;;6185011;23;20438;-84
2021/01/20 03:29:44;;;;;;;1.43;1.33;;;7.40;59.30;;;;;;6125444;23;20821;-84
2021/01/20 03:38:57;;;;;;;2.30;1.67;;;7.20;59.40;;;;;;6185753;23;20343;-84
2021/01/20 03:41:24;;;;;;;2.60;1.77;;;7.20;59.80;;;;;;6184795;23;20906;-82
2021/01/20 03:43:51;;;;;;;4.07;2.77;;;7.10;59.90;;;;;;6185106;23;20416;-82
2021/01/20 03:46:17;;;;;;;5.87;2.63;;;7.10;60.00;;;;;;6184979;23;20440;-83
2021/01/20 03:48:46;;;;;;;2.93;2.70;;;7.20;59.90;;;;;;6185338;23;20967;-84
2021/01/20 03:51:13;;;;;;;2.50;2.30;;;7.20;59.80;;;;;;6184977;23;20444;-82
2021/01/20 03:53:43;;;;;;;2.87;2.63;;;7.20;59.80;;;;;;6184553;23;20914;-84
2021/01/20 03:56:11;;;;;;;2.53;1.60;;;7.20;59.70;;;;;;6184865;23;20495;-84
2021/01/20 03:58:38;;;;;;;4.80;2.20;;;7.30;59.70;;;;;;6182276;23;20479;-81
2021/01/20 04:08:10;;;;;;;1.90;1.80;;;7.20;59.70;;;;;;5977456;24;20449;-84
2021/01/20 04:10:37;;;;;;;3.50;1.80;;;7.20;59.80;;;;;;6012381;23;20423;-84
2021/01/20 04:13:22;;;;;;;1.83;1.60;;;7.20;59.90;;;;;;6088149;23;20512;-84
2021/01/20 04:15:50;;;;;;;1.93;1.80;;;7.20;59.80;;;;;;6159785;23;20408;-84
2021/01/20 04:18:18;;;;;;;2.20;2.00;;;7.20;59.80;;;;;;6184737;23;20928;-83
2021/01/20 04:20:47;;;;;;;2.20;2.00;;;7.10;59.70;;;;;;6184667;23;20416;-83
2021/01/20 04:23:17;;;;;;;2.40;2.20;;;7.10;59.90;;;;;;6184245;23;20412;-84
2021/01/20 04:25:53;;;;;;;3.83;1.43;;;7.00;59.80;;;;;;6181749;23;20902;-86
2021/01/20 04:28:26;;;;;;;1.87;1.70;;;6.90;60.20;;;;;;6182811;23;20478;-85
2021/01/20 04:31:01;;;;;;;1.30;1.20;;;6.90;60.40;;;;;;6184106;23;20407;-84
2021/01/20 04:33:31;;;;;;;2.00;1.80;;;6.90;60.70;;;;;;6184316;23;20416;-84
2021/01/20 04:35:58;;;;;;;2.27;1.50;;;6.90;60.80;;;;;;6183980;23;20919;-83
2021/01/20 04:38:33;;;;;;;2.80;2.30;;;6.90;60.80;;;;;;6184694;23;20413;-84
2021/01/20 04:41:24;;;;;;;1.67;1.57;;;6.90;61.10;;;;;;6184526;23;20890;-85
2021/01/20 04:43:53;;;;;;;2.07;1.87;;;6.90;61.00;;;;;;6128334;23;20944;-83
2021/01/20 04:46:20;;;;;;;1.97;1.83;;;6.90;60.90;;;;;;6184189;23;20530;-83
2021/01/20 04:49:18;;;;;;;5.33;2.17;;;6.90;60.80;;;;;;6183232;23;20497;-85
2021/01/20 04:51:48;;;;;;;3.90;2.90;;;7.00;61.00;;;;;;6175144;23;20728;-83
2021/01/20 04:54:18;;;;;;;1.83;1.73;;;7.00;60.80;;;;;;6183016;23;20426;-85
2021/01/20 04:56:47;;;;;;;2.17;1.97;;;6.90;60.80;;;;;;6184229;23;20414;-84
2021/01/20 04:59:15;;;;;;;2.53;1.90;;;6.90;60.70;;;;;;6184146;23;20485;-85
2021/01/20 05:01:50;;;;;;;2.77;2.10;;;6.90;60.80;;;;;;6184171;23;20493;-86
2021/01/20 05:04:18;;;;;;;1.47;1.37;;;6.90;60.90;;;;;;6184273;23;20520;-82
2021/01/20 05:09:50;;;;;;;2.70;1.77;;;6.90;61.10;;;;;;6183871;23;20405;-86
2021/01/20 05:12:56;;;;;;;;;;;;;;;;;;;;;
2021/01/20 05:19:33;;;;;;;3.10;2.03;;;7.00;61.00;;;;;;6004354;23;20924;-85
2021/01/20 05:22:29;;;;;;;3.70;2.83;;;7.10;60.90;;;;;;6020486;23;20415;-85
2021/01/20 05:25:05;;;;;;;1.83;1.73;;;7.10;60.70;;;;;;6121888;23;20415;-85
2021/01/20 05:28:01;;;;;;;2.20;2.03;;;7.20;60.60;;;;;;6153012;23;20477;-85
2021/01/20 05:30:54;;;;;;;1.90;1.80;;;7.20;60.60;;;;;;6184105;23;20452;-85
2021/01/20 05:33:36;;;;;;;1.87;1.73;;;7.20;60.50;;;;;;6183394;23;20415;-88
2021/01/20 05:36:20;;;;;;;1.70;1.60;;;7.20;60.40;;;;;;6184031;23;20422;-85
2021/01/20 05:38:51;;;;;;;2.93;2.13;;;7.30;60.40;;;;;;6184241;23;20479;-83
2021/01/20 05:45:01;;;;;;;4.27;2.03;;;7.30;60.20;;;;;;6096765;23;20407;-86
2021/01/20 05:47:31;;;;;;;1.63;1.50;;;7.40;60.20;;;;;;6138625;23;20449;-85
2021/01/20 05:50:43;;;;;;;3.53;1.90;;;7.40;60.00;;;;;;6184602;23;20408;-85
2021/01/20 05:59:32;;;;;;;1.90;1.53;;;7.50;59.90;;;;;;6003374;23;20429;-84
2021/01/20 06:02:10;;;;;;;1.37;1.27;;;7.50;59.80;;;;;;6175673;23;20420;-84
2021/01/20 06:21:59;;;;;;;3.37;2.23;;;7.70;58.90;;;;;;6102852;23;20957;-73
2021/01/20 06:24:33;;;;;;;5.30;2.90;;;7.70;59.10;;;;;;6185459;23;20451;-73
2021/01/20 06:27:06;;;;;;;2.53;2.30;;;7.70;59.20;;;;;;6185110;23;20456;-74
2021/01/20 06:29:38;;;;;;;2.70;2.50;;;7.70;59.20;;;;;;6185205;23;20409;-73
2021/01/20 06:32:07;;;;;;;2.00;1.87;;;7.70;59.20;;;;;;6185115;23;20422;-74
2021/01/20 06:34:33;;;;;;;2.30;2.10;;;7.70;59.30;;;;;;6185212;23;20431;-74
2021/01/20 06:37:01;;;;;;;2.57;2.23;;;7.70;58.80;;;;;;6186053;23;20427;-73
2021/01/20 06:39:36;;;;;;;3.17;2.07;;;7.80;58.70;;;;;;6183256;23;20423;-74
2021/01/20 06:42:03;;;;;;;2.77;2.30;;;7.80;58.50;;;;;;6184727;23;20421;-73
2021/01/20 06:44:30;;;;;;;1.80;1.70;;;7.80;58.60;;;;;;6185650;23;20420;-73
2021/01/20 06:47:02;;;;;;;2.70;2.20;;;7.80;58.40;;;;;;6185408;23;20455;-73
2021/01/20 06:49:30;;;;;;;1.77;1.67;;;7.90;58.40;;;;;;6185553;23;20720;-73
2021/01/20 06:52:09;;;;;;;2.40;1.80;;;7.90;58.40;;;;;;6185462;23;20426;-74
2021/01/20 06:54:38;;;;;;;2.40;2.20;;;7.90;58.20;;;;;;6185519;23;20444;-74
2021/01/20 06:57:29;;;;;;;2.23;1.70;;;7.90;58.10;;;;;;6185864;23;20414;-73
2021/01/20 07:00:21;;;;;;;2.03;1.83;;;8.00;58.00;;;;;;6184584;23;20420;-73
2021/01/20 07:03:06;;;;;;;2.33;2.13;;;8.00;57.80;;;;;;6184432;23;20505;-73
2021/01/20 07:05:38;;;;;;;4.57;2.00;;;8.00;57.60;;;;;;6183141;23;20409;-73
2021/01/20 07:08:07;;;;;;;2.00;1.83;;;8.10;57.80;;;;;;6184680;23;20444;-73
2021/01/20 07:11:06;;;;;;;2.13;1.93;;;8.10;57.70;;;;;;6183529;23;20432;-72
2021/01/20 07:13:37;;;;;;;3.20;2.60;;;8.10;57.60;;;;;;6185315;23;20421;-73
2021/01/20 07:16:09;;;;;;;3.60;2.53;;;8.10;57.60;;;;;;6185203;23;20407;-73
2021/01/20 07:18:39;;;;;;;2.93;2.43;;;8.20;57.70;;;;;;6185314;23;20409;-73
2021/01/20 07:21:07;;;;;;;2.40;2.20;;;8.20;57.70;;;;;;6184865;23;20448;-73
2021/01/20 07:23:34;;;;;;;3.13;2.30;;;8.20;57.70;;;;;;6184791;23;20420;-73
2021/01/20 07:26:03;;;;;;;5.17;2.50;;;8.20;57.70;;;;;;6185290;23;20969;-73
2021/01/20 07:28:31;;;;;;;5.23;2.50;;;8.20;57.70;;;;;;6185194;23;20488;-72
2021/01/20 07:31:05;;;;;;;5.60;2.47;;;8.20;57.80;;;;;;6184657;23;20451;-72
2021/01/20 07:33:32;;;;;;;2.43;2.27;;;8.20;58.00;;;;;;6185012;23;20430;-73
2021/01/20 07:36:09;;;;;;;3.53;2.57;;;8.20;57.90;;;;;;6184692;23;20436;-72
2021/01/20 07:38:36;;;;;;;2.87;2.10;;;8.20;57.90;;;;;;6184458;23;20419;-73
2021/01/20 07:41:14;;;;;;;3.07;2.33;;;8.20;58.10;;;;;;6185366;23;20413;-73
2021/01/20 07:43:40;;;;;;;4.10;2.63;;;8.20;58.20;;;;;;6184952;23;20424;-73
2021/01/20 07:46:14;;;;;;;7.13;3.20;;;8.20;58.20;;;;;;6184920;23;20413;-73
2021/01/20 07:48:40;;;;;;;4.50;2.57;;;8.20;58.30;;;;;;6185407;23;20453;-73
2021/01/20 07:51:07;;;;;;;3.97;3.30;;;8.20;58.40;;;;;;6184598;23;20726;-74
2021/01/20 07:53:34;;;;;;;3.27;2.90;;;8.20;58.40;;;;;;6180638;23;20456;-74
2021/01/20 07:56:02;;;;;;;2.67;2.47;;;8.20;58.30;;;;;;6184188;23;20417;-73
2021/01/20 07:58:29;;;;;;;4.50;2.07;;;8.20;58.30;;;;;;6181233;23;20417;-73
2021/01/20 08:00:56;;;;;;;3.80;2.43;;;8.30;58.30;;;;;;6181466;23;20414;-74
2021/01/20 08:03:33;;;;;;;4.50;2.80;;;8.30;58.40;;;;;;6181050;23;20966;-73
2021/01/20 08:06:01;;;;;;;3.37;2.60;;;8.30;58.00;;;;;;6180503;23;20439;-74
2021/01/20 08:08:28;;;;;;;3.20;2.67;;;8.30;58.40;;;;;;6180129;23;20517;-73
2021/01/20 08:11:00;;;;;;;3.23;2.30;;;8.30;57.90;;;;;;6181154;23;20444;-74
2021/01/20 08:13:30;;;;;;;2.73;2.00;;;8.30;57.70;;;;;;6181536;23;20406;-73
2021/01/20 08:15:57;;;;;;;3.47;3.00;;;8.30;57.70;;;;;;6183898;23;20416;-73
2021/01/20 08:18:24;;;;;;;5.30;2.73;;;8.40;57.90;;;;;;6184850;23;20413;-74
2021/01/20 08:20:51;;;;;;;5.37;2.50;;;8.40;57.10;;;;;;6181719;23;20418;-73
2021/01/20 08:23:39;;;;;;;5.40;3.20;;;8.40;57.10;;;;;;6180206;23;20452;-73
2021/01/20 08:26:06;;;;;;;4.17;2.67;;;8.50;57.00;;;;;;6180683;23;20412;-73
2021/01/20 08:28:34;;;;;;;2.80;2.53;;;8.60;56.70;;;;;;6184349;23;20460;-73
2021/01/20 08:31:22;;;;;;;3.00;2.33;;;8.60;56.40;;;;;;6179790;23;20414;-73
2021/01/20 08:33:48;;;;;;;3.60;2.23;;;8.60;55.60;;;;;;6180446;23;20747;-73
2021/01/20 08:36:23;;;;;;;2.70;1.93;;;8.60;55.30;;;;;;6180529;23;20410;-74
2021/01/20 08:38:49;;;;;;;4.17;2.53;;;8.70;55.30;;;;;;6180519;23;20961;-74
2021/01/20 08:41:17;;;;;;;4.13;3.07;;;8.70;54.90;;;;;;6180095;23;20471;-73
2021/01/20 08:43:45;;;;;;;5.50;3.60;;;8.70;54.60;;;;;;6182203;23;20483;-73
2021/01/20 08:46:27;;;;;;;2.03;1.87;;;8.80;54.50;;;;;;6184502;23;20413;-73
2021/01/20 08:48:57;;;;;;;4.90;2.50;;;8.80;54.50;;;;;;6184176;23;20415;-74
2021/01/20 08:51:24;;;;;;;3.53;2.47;;;8.80;54.40;;;;;;6184252;23;20941;-73
2021/01/20 08:53:50;;;;;;;2.23;2.03;;;8.80;54.30;;;;;;6181840;23;20416;-73
2021/01/20 08:56:26;;;;;;;5.77;2.53;;;8.90;54.20;;;;;;6184259;23;20417;-73
2021/01/20 08:58:54;;;;;;;2.20;2.00;;;8.90;54.00;;;;;;6184829;23;20765;-73
2021/01/20 09:01:26;;;;;;;5.27;2.20;;;8.90;54.00;;;;;;6184450;23;20741;-73
2021/01/20 09:03:58;;;;;;;2.97;2.03;;;8.90;54.10;;;;;;6184192;23;20504;-73
2021/01/20 09:06:25;;;;;;;3.33;2.10;;;9.00;54.80;;;;;;6184442;23;20778;-73
2021/01/20 09:08:51;;;;;;;2.50;2.30;;;9.00;54.20;;;;;;6183853;23;20417;-74
2021/01/20 09:11:18;;;;;;;6.43;2.13;;;9.00;54.20;;;;;;6184302;23;21028;-74
2021/01/20 09:13:45;;;;;;;2.80;1.80;;;9.00;53.90;;;;;;6184587;23;20792;-73
2021/01/20 09:16:12;;;;;;;2.63;2.30;;;9.00;53.90;;;;;;6182753;23;20886;-73
2021/01/20 09:18:39;;;;;;;1.97;1.87;;;9.00;53.70;;;;;;6182995;23;20424;-73
2021/01/20 09:21:06;;;;;;;1.97;1.80;;;9.00;53.80;;;;;;6181203;23;20443;-73
2021/01/20 09:23:33;;;;;;;5.77;2.67;;;9.00;53.60;;;;;;6183466;23;20410;-73
2021/01/20 09:25:59;;;;;;;2.73;2.10;;;9.00;53.60;;;;;;6184265;23;20786;-73
2021/01/20 09:28:26;;;;;;;2.70;2.50;;;9.10;53.70;;;;;;6182700;23;20455;-73
2021/01/20 09:30:53;;;;;;;6.73;2.87;;;9.10;53.60;;;;;;6181157;23;20417;-73
2021/01/20 09:33:20;;;;;;;4.67;2.20;;;9.20;53.80;;;;;;6182892;23;20524;-73
2021/01/20 09:35:47;;;;;;;2.80;2.60;;;9.20;53.60;;;;;;6183723;23;20461;-73
2021/01/20 09:38:16;;;;;;;4.77;2.70;;;9.30;53.50;;;;;;6182667;23;20432;-74
2021/01/20 09:40:42;;;;;;;2.63;2.43;;;9.30;53.50;;;;;;6183618;23;20923;-74
2021/01/20 09:43:09;;;;;;;3.50;2.83;;;9.40;53.50;;;;;;6184414;23;20421;-73
2021/01/20 09:45:36;;;;;;;5.20;3.70;;;9.40;53.20;;;;;;6185989;23;20410;-73
2021/01/20 09:48:06;;;;;;;3.33;3.13;;;9.40;52.90;;;;;;6183781;23;20497;-73
2021/01/20 09:50:34;;;;;;;4.30;2.80;;;9.40;52.90;;;;;;6185193;23;20408;-73
2021/01/20 09:53:02;;;;;;;3.47;2.70;;;9.50;53.10;;;;;;6183597;23;20417;-74
2021/01/20 09:55:28;;;;;;;9.23;7.50;;;9.50;53.20;;;;;;6183795;23;20762;-73
2021/01/20 09:57:55;;;;;;;4.57;3.23;;;9.50;53.10;;;;;;6184048;23;20415;-74
2021/01/20 10:00:22;;;;;;;3.37;2.47;;;9.60;52.90;;;;;;6184751;23;20412;-74
2021/01/20 10:02:49;;;;;;;5.20;3.73;;;9.60;52.70;;;;;;6186065;23;20835;-73
2021/01/20 10:05:15;;;;;;;4.90;2.60;;;9.60;52.70;;;;;;6185500;23;20458;-73
2021/01/20 10:07:43;;;;;;;4.97;3.03;;;9.60;52.80;;;;;;6184669;23;20464;-73
2021/01/20 10:10:12;;;;;;;3.63;3.33;;;9.60;52.60;;;;;;6183900;23;20510;-75
2021/01/20 10:12:39;;;;;;;4.83;3.13;;;9.60;52.40;;;;;;6184421;23;20414;-73
2021/01/20 10:15:07;;;;;;;3.70;3.03;;;9.60;52.10;;;;;;6182483;23;20412;-73
2021/01/20 10:17:34;;;;;;;4.83;2.40;;;9.70;52.20;;;;;;6183651;23;20461;-73
2021/01/20 10:20:01;;;;;;;2.70;2.50;;;9.70;52.50;;;;;;6183722;23;20420;-74
2021/01/20 10:22:27;;;;;;;7.07;3.23;;;9.70;52.40;;;;;;6184690;23;20437;-74
2021/01/20 10:24:55;;;;;;;3.37;2.63;;;9.80;52.40;;;;;;6185106;23;20458;-74
2021/01/20 10:27:21;;;;;;;5.50;3.17;;;9.80;52.30;;;;;;6185238;23;20966;-74
2021/01/20 10:29:48;;;;;;;3.00;2.63;;;9.80;52.10;;;;;;6185333;23;20416;-73
2021/01/20 10:32:14;;;;;;;3.07;2.80;;;9.80;52.10;;;;;;6185583;23;20419;-73
2021/01/20 10:34:41;;;;;;;3.50;2.10;;;9.80;51.80;;;;;;6185482;23;20426;-73
2021/01/20 10:37:08;;;;;;;8.93;3.50;;;9.80;52.00;;;;;;6185186;23;20412;-73
2021/01/20 10:39:34;;;;;;;4.50;2.90;;;9.90;52.00;;;;;;6185908;23;20408;-73
2021/01/20 10:42:01;;;;;;;2.73;2.47;;;9.90;51.80;;;;;;6183785;23;20414;-74
2021/01/20 10:44:28;;;;;;;2.83;2.53;;;9.90;51.80;;;;;;6185341;23;20425;-73
2021/01/20 10:46:55;;;;;;;3.13;2.83;;;10.00;50.90;;;;;;6185399;23;20445;-73
2021/01/20 10:49:21;;;;;;;8.57;3.90;;;10.10;50.90;;;;;;6185384;23;20420;-73
2021/01/20 10:51:48;;;;;;;4.53;2.83;;;10.10;50.50;;;;;;6184764;23;20450;-73
2021/01/20 10:54:14;;;;;;;4.20;3.07;;;10.10;50.60;;;;;;6185190;23;20490;-74
2021/01/20 10:56:42;;;;;;;5.93;3.30;;;10.10;50.40;;;;;;6184937;23;20406;-74
2021/01/20 10:59:09;;;;;;;5.00;3.87;;;10.20;50.50;;;;;;6184933;23;20773;-74
2021/01/20 11:01:36;;;;;;;6.43;3.43;;;10.20;50.10;;;;;;6184139;23;20413;-74
2021/01/20 11:04:02;;;;;;;4.37;2.80;;;10.30;50.00;;;;;;6185418;23;20416;-74
2021/01/20 11:06:29;;;;;;;3.53;2.40;;;10.30;49.90;;;;;;6185487;23;20418;-74
2021/01/20 11:08:56;;;;;;;4.53;3.10;;;10.40;49.80;;;;;;6183196;23;20462;-74
2021/01/20 11:11:23;;;;;;;5.37;2.53;;;10.40;49.60;;;;;;6184035;23;20412;-73
2021/01/20 11:13:49;;;;;;;9.90;3.70;;;10.40;49.50;;;;;;6184855;23;20408;-73
2021/01/20 11:16:17;;;;;;;4.80;3.43;;;10.50;49.40;;;;;;6185144;23;20422;-73
2021/01/20 11:18:43;;;;;;;4.10;3.00;;;10.50;49.30;;;;;;6184582;23;20417;-73
2021/01/20 11:21:14;;;;;;;3.53;3.13;;;10.50;49.40;;;;;;6184708;23;20502;-74
2021/01/20 11:23:41;;;;;;;5.63;3.00;;;10.50;49.40;;;;;;6184919;23;20423;-73
2021/01/20 11:26:09;;;;;;;6.37;3.27;;;10.50;49.20;;;;;;6184065;23;20423;-73
2021/01/20 11:28:36;;;;;;;14.63;3.30;;;10.60;49.20;;;;;;6184966;23;20449;-74
2021/01/20 11:31:03;;;;;;;6.70;3.57;;;10.60;49.00;;;;;;6183546;23;20428;-74
2021/01/20 11:33:30;;;;;;;4.90;3.40;;;10.50;48.90;;;;;;6182666;23;20409;-73
2021/01/20 11:35:57;;;;;;;14.87;4.80;;;10.50;49.00;;;;;;6181210;23;20490;-73
2021/01/20 11:38:23;;;;;;;5.10;3.40;;;10.50;49.00;;;;;;6182284;23;20417;-73
2021/01/20 11:40:50;;;;;;;13.10;3.53;;;10.50;48.90;;;;;;6182432;23;20776;-74
2021/01/20 11:43:16;;;;;;;3.47;3.17;;;10.50;48.90;;;;;;6182974;23;20406;-73
2021/01/20 11:45:43;;;;;;;3.57;3.30;;;10.50;49.00;;;;;;6184694;23;20913;-73
2021/01/20 11:48:10;;;;;;;4.93;3.70;;;10.50;49.10;;;;;;6184581;23;20482;-72
2021/01/20 11:50:37;;;;;;;6.50;3.30;;;10.50;48.90;;;;;;6183172;23;20921;-72
2021/01/20 11:53:04;;;;;;;14.60;4.80;;;10.50;48.90;;;;;;6182259;23;20747;-72
2021/01/20 11:55:31;;;;;;;5.43;3.50;;;10.40;49.10;;;;;;6183332;23;20422;-72
2021/01/20 11:57:58;;;;;;;6.10;3.23;;;10.50;49.10;;;;;;6182477;23;20396;-73
2021/01/20 12:00:24;;;;;;;5.90;3.70;;;10.50;49.10;;;;;;6184073;23;20860;-72
2021/01/20 12:02:51;;;;;;;4.97;3.53;;;10.50;49.10;;;;;;6182656;23;20443;-72
2021/01/20 12:05:18;;;;;;;8.50;4.47;;;10.50;49.10;;;;;;6182955;23;20412;-72
2021/01/20 12:07:46;;;;;;;9.70;4.10;;;10.50;49.10;;;;;;6183170;23;20499;-72
2021/01/20 12:10:14;;;;;;;6.07;4.33;;;10.50;49.20;;;;;;6183041;23;20407;-73
2021/01/20 12:12:41;;;;;;;11.80;3.73;;;10.50;49.20;;;;;;6182090;23;20795;-72
2021/01/20 12:15:09;;;;;;;6.03;4.07;;;10.50;49.10;;;;;;6184339;23;20475;-72
2021/01/20 12:17:35;;;;;;;12.50;4.90;;;10.60;49.20;;;;;;6184777;23;20494;-72
2021/01/20 12:20:03;;;;;;;20.40;5.00;;;10.60;49.30;;;;;;6182853;23;20408;-72
2021/01/20 12:22:29;;;;;;;7.70;3.90;;;10.60;49.40;;;;;;6182631;23;20433;-72
2021/01/20 12:24:57;;;;;;;13.30;5.93;;;10.60;49.30;;;;;;6184119;23;20410;-72
2021/01/20 12:27:23;;;;;;;8.33;4.13;;;10.70;49.40;;;;;;6184684;23;20471;-72
2021/01/20 12:29:50;;;;;;;7.10;3.87;;;10.70;49.30;;;;;;6182092;23;20487;-72
2021/01/20 12:32:16;;;;;;;4.20;3.40;;;10.70;49.30;;;;;;6182313;23;20417;-72
2021/01/20 12:34:43;;;;;;;6.20;3.40;;;10.80;49.30;;;;;;6182383;23;20416;-73
2021/01/20 12:37:10;;;;;;;13.17;4.67;;;10.80;49.00;;;;;;6183151;23;20420;-72
2021/01/20 12:39:37;;;;;;;5.27;3.30;;;10.80;49.00;;;;;;6183845;23;20906;-73
2021/01/20 12:42:05;;;;;;;4.17;3.80;;;10.80;48.80;;;;;;6183396;23;21263;-73
2021/01/20 12:44:32;;;;;;;8.80;4.57;;;10.80;49.00;;;;;;6183435;23;20411;-73
2021/01/20 12:46:59;;;;;;;8.63;4.37;;;10.80;49.10;;;;;;6183541;23;20417;-74
2021/01/20 12:49:25;;;;;;;8.23;4.93;;;10.80;49.20;;;;;;6183368;23;20412;-73
2021/01/20 12:51:52;;;;;;;5.80;3.40;;;10.80;49.20;;;;;;6183601;23;20558;-73
2021/01/20 12:54:19;;;;;;;11.03;4.87;;;10.90;49.30;;;;;;6183448;23;21115;-74
2021/01/20 12:56:45;;;;;;;4.80;3.70;;;10.90;49.30;;;;;;6181360;23;20420;-74
2021/01/20 12:59:13;;;;;;;9.53;4.60;;;10.90;49.30;;;;;;6183544;23;20420;-74
2021/01/20 13:01:39;;;;;;;8.30;4.67;;;11.00;49.50;;;;;;6183274;23;20410;-74
2021/01/20 13:04:06;;;;;;;5.70;3.47;;;11.00;49.50;;;;;;6183517;23;20439;-73
2021/01/20 13:06:32;;;;;;;4.77;3.87;;;11.00;49.40;;;;;;6183683;23;20489;-73
2021/01/20 13:08:59;;;;;;;4.27;3.87;;;11.00;49.50;;;;;;6184591;23;20506;-73
2021/01/20 13:11:25;;;;;;;15.07;4.40;;;11.00;49.60;;;;;;6185237;23;20786;-73
2021/01/20 13:13:52;;;;;;;7.70;3.77;;;11.10;49.60;;;;;;6186599;23;20471;-73
2021/01/20 13:16:19;;;;;;;7.90;4.03;;;11.10;49.50;;;;;;6186209;23;20414;-73
2021/01/20 13:18:46;;;;;;;9.30;4.20;;;11.10;49.50;;;;;;6186517;23;20417;-73
2021/01/20 13:21:13;;;;;;;9.60;4.53;;;11.10;49.40;;;;;;6186492;23;20412;-73
2021/01/20 13:23:40;;;;;;;5.53;4.33;;;11.20;49.50;;;;;;6184007;23;20409;-73
2021/01/20 13:26:07;;;;;;;4.30;3.90;;;11.20;49.60;;;;;;6185949;23;20409;-73
2021/01/20 13:28:33;;;;;;;5.87;4.43;;;11.20;49.40;;;;;;6186180;23;20458;-73
2021/01/20 13:31:00;;;;;;;4.40;4.00;;;11.20;49.50;;;;;;6181168;23;20417;-73
2021/01/20 13:33:27;;;;;;;5.30;4.00;;;11.20;49.40;;;;;;6186171;23;20414;-73
2021/01/20 13:35:54;;;;;;;6.40;4.70;;;11.30;49.30;;;;;;6182787;23;20754;-73
2021/01/20 13:38:20;;;;;;;10.00;6.00;;;11.30;49.10;;;;;;6185000;23;20929;-73
2021/01/20 13:40:47;;;;;;;9.63;6.10;;;11.30;49.20;;;;;;6185844;23;20417;-73
2021/01/20 13:43:14;;;;;;;6.23;3.63;;;11.30;49.20;;;;;;6185366;23;20421;-74
2021/01/20 13:45:40;;;;;;;6.83;4.87;;;11.40;49.20;;;;;;6185303;23;20475;-73
2021/01/20 13:48:08;;;;;;;5.30;4.10;;;11.30;49.20;;;;;;6184895;23;20840;-73
2021/01/20 13:50:36;;;;;;;9.47;4.60;;;11.40;49.30;;;;;;6183800;23;20463;-73
2021/01/20 13:53:02;;;;;;;5.47;4.60;;;11.40;49.30;;;;;;6185077;23;20417;-73
2021/01/20 13:55:29;;;;;;;7.53;5.10;;;11.40;49.30;;;;;;6185779;23;20453;-73
2021/01/20 13:57:55;;;;;;;5.03;3.63;;;11.40;49.40;;;;;;6185720;23;20662;-73
2021/01/20 14:00:22;;;;;;;9.10;5.40;;;11.40;49.40;;;;;;6185264;23;20419;-74
2021/01/20 14:02:49;;;;;;;4.47;3.97;;;11.40;49.20;;;;;;6185731;23;20751;-73
2021/01/20 14:05:16;;;;;;;6.30;5.30;;;11.40;49.30;;;;;;6185830;23;20433;-73
2021/01/20 14:07:43;;;;;;;10.50;5.10;;;11.40;49.30;;;;;;6184664;23;20531;-73
2021/01/20 14:10:11;;;;;;;9.20;4.03;;;11.40;49.40;;;;;;6185016;23;20494;-73
2021/01/20 14:12:37;;;;;;;8.67;4.73;;;11.40;49.50;;;;;;6185639;23;20416;-73
2021/01/20 14:15:05;;;;;;;8.80;4.43;;;11.30;49.40;;;;;;6185945;23;20426;-73
2021/01/20 14:17:31;;;;;;;7.30;4.40;;;11.30;49.70;;;;;;6184150;23;20415;-73
2021/01/20 14:20:03;;;;;;;6.50;3.47;;;11.30;49.50;;;;;;6185192;23;20898;-73
2021/01/20 14:22:30;;;;;;;4.57;3.80;;;11.30;49.40;;;;;;6185701;23;20441;-73
2021/01/20 14:24:58;;;;;;;5.63;4.70;;;11.30;49.40;;;;;;6185942;23;20413;-73
2021/01/20 14:27:27;;;;;;;7.00;4.33;;;11.20;49.50;;;;;;6185638;23;20445;-73
2021/01/20 14:29:53;;;;;;;6.40;3.50;;;11.20;49.60;;;;;;6185893;23;20443;-73
2021/01/20 14:32:20;;;;;;;5.00;3.90;;;11.20;49.60;;;;;;6185376;23;20923;-73
2021/01/20 14:34:46;;;;;;;28.60;5.00;;;11.20;49.80;;;;;;6185415;23;20420;-73
2021/01/20 14:37:13;;;;;;;5.37;3.60;;;11.20;49.90;;;;;;6185141;23;20436;-74
2021/01/20 14:39:39;;;;;;;9.40;4.93;;;11.20;50.10;;;;;;6184451;23;20496;-73